sensor_id;sensor_type;location;lat;lon;timestamp;P1;P2;P0
67892;PMS7003;54688;52.376;16.744;2022-09-09T00:02:55;18;17;
67892;PMS7003;54688;52.376;16.744;2022-09-09T00:06:04;19;17;
67892;PMS7003;54688;52.376;16.744;2022-09-09T00:09:13;18;16;
67892;PMS7003;54688;52.376;16.744;2022-09-09T00:12:24;20;15;
67892;PMS7003;54688;52.376;16.744;2022-09-09T00:15:35;16;16;
67892;PMS7003;54688;52.376;16.744;2022-09-09T00:18:49;19;17;
67892;PMS7003;54688;52.376;16.744;2022-09-09T00:22:03;22;20;
67892;PMS7003;54688;52.376;16.744;2022-09-09T00:25:12;18;15;
67892;PMS7003;54688;52.376;16.744;2022-09-09T00:28:18;16;14;
67892;PMS7003;54688;52.376;16.744;2022-09-09T00:31:25;18;15;
67892;PMS7003;54688;52.376;16.744;2022-09-09T00:34:29;16;16;
67892;PMS7003;54688;52.376;16.744;2022-09-09T00:37:32;24;17;
67892;PMS7003;54688;52.376;16.744;2022-09-09T00:40:41;18;16;
67892;PMS7003;54688;52.376;16.744;2022-09-09T00:43:55;19;17;
67892;PMS7003;54688;52.376;16.744;2022-09-09T00:50:00;19;16;
67892;PMS7003;54688;52.376;16.744;2022-09-09T00:53:15;20;19;
67892;PMS7003;54688;52.376;16.744;2022-09-09T00:56:25;21;16;
67892;PMS7003;54688;52.376;16.744;2022-09-09T01:02:29;16;14;
67892;PMS7003;54688;52.376;16.744;2022-09-09T01:05:41;18;14;
67892;PMS7003;54688;52.376;16.744;2022-09-09T01:09:00;19;13;
67892;PMS7003;54688;52.376;16.744;2022-09-09T01:12:11;14;14;
67892;PMS7003;54688;52.376;16.744;2022-09-09T01:15:18;22;17;
67892;PMS7003;54688;52.376;16.744;2022-09-09T01:18:23;16;16;
67892;PMS7003;54688;52.376;16.744;2022-09-09T01:21:35;21;20;
67892;PMS7003;54688;52.376;16.744;2022-09-09T01:24:43;16;15;
67892;PMS7003;54688;52.376;16.744;2022-09-09T01:27:49;18;17;
67892;PMS7003;54688;52.376;16.744;2022-09-09T01:30:53;21;17;
67892;PMS7003;54688;52.376;16.744;2022-09-09T01:33:55;18;18;
67892;PMS7003;54688;52.376;16.744;2022-09-09T01:37:02;55;40;
67892;PMS7003;54688;52.376;16.744;2022-09-09T01:40:07;77;56;
67892;PMS7003;54688;52.376;16.744;2022-09-09T01:43:10;54;35;
67892;PMS7003;54688;52.376;16.744;2022-09-09T01:46:12;26;23;
67892;PMS7003;54688;52.376;16.744;2022-09-09T01:54:26;15;14;
67892;PMS7003;54688;52.376;16.744;2022-09-09T01:57:33;17;12;
67892;PMS7003;54688;52.376;16.744;2022-09-09T02:00:44;18;14;
67892;PMS7003;54688;52.376;16.744;2022-09-09T02:03:52;16;13;
67892;PMS7003;54688;52.376;16.744;2022-09-09T02:06:56;15;14;
67892;PMS7003;54688;52.376;16.744;2022-09-09T02:10:02;18;15;
67892;PMS7003;54688;52.376;16.744;2022-09-09T02:13:10;15;13;
67892;PMS7003;54688;52.376;16.744;2022-09-09T02:16:18;18;15;
67892;PMS7003;54688;52.376;16.744;2022-09-09T02:19:25;19;15;
67892;PMS7003;54688;52.376;16.744;2022-09-09T02:22:28;15;14;
67892;PMS7003;54688;52.376;16.744;2022-09-09T02:25:36;15;15;
67892;PMS7003;54688;52.376;16.744;2022-09-09T02:28:39;13;13;
67892;PMS7003;54688;52.376;16.744;2022-09-09T02:31:45;12;12;
67892;PMS7003;54688;52.376;16.744;2022-09-09T02:34:53;19;14;
67892;PMS7003;54688;52.376;16.744;2022-09-09T02:38:00;21;17;
67892;PMS7003;54688;52.376;16.744;2022-09-09T02:41:05;12;12;
67892;PMS7003;54688;52.376;16.744;2022-09-09T02:44:10;15;13;
67892;PMS7003;54688;52.376;16.744;2022-09-09T02:47:23;14;13;
67892;PMS7003;54688;52.376;16.744;2022-09-09T02:50:30;12;12;
67892;PMS7003;54688;52.376;16.744;2022-09-09T02:56:36;17;15;
67892;PMS7003;54688;52.376;16.744;2022-09-09T02:59:43;18;17;
67892;PMS7003;54688;52.376;16.744;2022-09-09T03:02:45;24;19;
67892;PMS7003;54688;52.376;16.744;2022-09-09T03:05:47;16;15;
67892;PMS7003;54688;52.376;16.744;2022-09-09T03:08:50;17;16;
67892;PMS7003;54688;52.376;16.744;2022-09-09T03:11:51;15;14;
67892;PMS7003;54688;52.376;16.744;2022-09-09T03:14:53;15;13;
67892;PMS7003;54688;52.376;16.744;2022-09-09T03:17:56;15;14;
67892;PMS7003;54688;52.376;16.744;2022-09-09T03:20:58;15;14;
67892;PMS7003;54688;52.376;16.744;2022-09-09T03:24:00;17;17;
67892;PMS7003;54688;52.376;16.744;2022-09-09T03:27:03;12;12;
67892;PMS7003;54688;52.376;16.744;2022-09-09T03:30:07;16;14;
67892;PMS7003;54688;52.376;16.744;2022-09-09T03:33:10;16;13;
67892;PMS7003;54688;52.376;16.744;2022-09-09T03:36:12;18;16;
67892;PMS7003;54688;52.376;16.744;2022-09-09T03:39:14;14;13;
67892;PMS7003;54688;52.376;16.744;2022-09-09T03:42:18;13;13;
67892;PMS7003;54688;52.376;16.744;2022-09-09T03:45:20;12;12;
67892;PMS7003;54688;52.376;16.744;2022-09-09T03:48:23;20;19;
67892;PMS7003;54688;52.376;16.744;2022-09-09T03:51:25;18;14;
67892;PMS7003;54688;52.376;16.744;2022-09-09T03:54:28;15;14;
67892;PMS7003;54688;52.376;16.744;2022-09-09T03:57:30;16;16;
67892;PMS7003;54688;52.376;16.744;2022-09-09T04:00:33;21;16;
67892;PMS7003;54688;52.376;16.744;2022-09-09T04:03:36;19;17;
67892;PMS7003;54688;52.376;16.744;2022-09-09T04:06:39;22;17;
67892;PMS7003;54688;52.376;16.744;2022-09-09T04:09:42;22;17;
67892;PMS7003;54688;52.376;16.744;2022-09-09T04:12:45;14;14;
67892;PMS7003;54688;52.376;16.744;2022-09-09T04:15:50;16;16;
67892;PMS7003;54688;52.376;16.744;2022-09-09T04:18:53;16;15;
67892;PMS7003;54688;52.376;16.744;2022-09-09T04:21:56;18;17;
67892;PMS7003;54688;52.376;16.744;2022-09-09T04:24:58;16;15;
67892;PMS7003;54688;52.376;16.744;2022-09-09T04:28:00;27;22;
67892;PMS7003;54688;52.376;16.744;2022-09-09T04:31:05;20;15;
67892;PMS7003;54688;52.376;16.744;2022-09-09T04:37:07;20;17;
67892;PMS7003;54688;52.376;16.744;2022-09-09T04:40:09;17;17;
67892;PMS7003;54688;52.376;16.744;2022-09-09T04:43:13;20;17;
67892;PMS7003;54688;52.376;16.744;2022-09-09T04:46:15;19;18;
67892;PMS7003;54688;52.376;16.744;2022-09-09T04:49:17;22;17;
67892;PMS7003;54688;52.376;16.744;2022-09-09T04:52:20;23;21;
67892;PMS7003;54688;52.376;16.744;2022-09-09T04:55:22;21;18;
67892;PMS7003;54688;52.376;16.744;2022-09-09T04:58:24;18;16;
67892;PMS7003;54688;52.376;16.744;2022-09-09T05:01:26;21;18;
67892;PMS7003;54688;52.376;16.744;2022-09-09T05:04:28;28;26;
67892;PMS7003;54688;52.376;16.744;2022-09-09T05:07:30;27;25;
67892;PMS7003;54688;52.376;16.744;2022-09-09T05:10:35;22;18;
67892;PMS7003;54688;52.376;16.744;2022-09-09T05:13:38;25;22;
67892;PMS7003;54688;52.376;16.744;2022-09-09T05:16:40;26;21;
67892;PMS7003;54688;52.376;16.744;2022-09-09T05:19:42;23;23;
67892;PMS7003;54688;52.376;16.744;2022-09-09T05:22:46;21;19;
67892;PMS7003;54688;52.376;16.744;2022-09-09T05:25:56;19;19;
67892;PMS7003;54688;52.376;16.744;2022-09-09T05:28:58;23;20;
67892;PMS7003;54688;52.376;16.744;2022-09-09T05:32:01;19;17;
67892;PMS7003;54688;52.376;16.744;2022-09-09T05:35:04;18;15;
67892;PMS7003;54688;52.376;16.744;2022-09-09T05:38:07;19;17;
67892;PMS7003;54688;52.376;16.744;2022-09-09T05:41:10;17;17;
67892;PMS7003;54688;52.376;16.744;2022-09-09T05:44:14;21;16;
67892;PMS7003;54688;52.376;16.744;2022-09-09T05:47:16;21;19;
67892;PMS7003;54688;52.376;16.744;2022-09-09T05:50:18;17;14;
67892;PMS7003;54688;52.376;16.744;2022-09-09T05:53:21;23;20;
67892;PMS7003;54688;52.376;16.744;2022-09-09T05:56:27;23;22;
67892;PMS7003;54688;52.376;16.744;2022-09-09T05:59:30;18;17;
67892;PMS7003;54688;52.376;16.744;2022-09-09T06:02:31;22;21;
67892;PMS7003;54688;52.376;16.744;2022-09-09T06:05:33;22;16;
67892;PMS7003;54688;52.376;16.744;2022-09-09T06:08:37;20;17;
67892;PMS7003;54688;52.376;16.744;2022-09-09T06:11:40;23;20;
67892;PMS7003;54688;52.376;16.744;2022-09-09T06:14:41;33;28;
67892;PMS7003;54688;52.376;16.744;2022-09-09T06:17:43;29;23;
67892;PMS7003;54688;52.376;16.744;2022-09-09T06:20:54;26;23;
67892;PMS7003;54688;52.376;16.744;2022-09-09T06:23:57;25;22;
67892;PMS7003;54688;52.376;16.744;2022-09-09T06:27:01;23;20;
67892;PMS7003;54688;52.376;16.744;2022-09-09T06:30:06;26;22;
67892;PMS7003;54688;52.376;16.744;2022-09-09T06:33:09;24;18;
67892;PMS7003;54688;52.376;16.744;2022-09-09T06:36:13;23;18;
67892;PMS7003;54688;52.376;16.744;2022-09-09T06:39:16;22;21;
67892;PMS7003;54688;52.376;16.744;2022-09-09T06:42:18;28;24;
67892;PMS7003;54688;52.376;16.744;2022-09-09T06:45:22;26;25;
67892;PMS7003;54688;52.376;16.744;2022-09-09T06:51:24;21;21;
67892;PMS7003;54688;52.376;16.744;2022-09-09T06:54:27;21;21;
67892;PMS7003;54688;52.376;16.744;2022-09-09T06:57:29;26;22;
67892;PMS7003;54688;52.376;16.744;2022-09-09T07:00:32;20;18;
67892;PMS7003;54688;52.376;16.744;2022-09-09T07:03:34;20;17;
67892;PMS7003;54688;52.376;16.744;2022-09-09T07:06:39;21;20;
67892;PMS7003;54688;52.376;16.744;2022-09-09T07:09:41;21;19;
67892;PMS7003;54688;52.376;16.744;2022-09-09T07:12:44;21;17;
67892;PMS7003;54688;52.376;16.744;2022-09-09T07:15:52;20;16;
67892;PMS7003;54688;52.376;16.744;2022-09-09T07:18:54;22;18;
67892;PMS7003;54688;52.376;16.744;2022-09-09T07:21:57;20;20;
67892;PMS7003;54688;52.376;16.744;2022-09-09T07:25:00;19;18;
67892;PMS7003;54688;52.376;16.744;2022-09-09T07:28:03;16;16;
67892;PMS7003;54688;52.376;16.744;2022-09-09T07:31:06;14;13;
67892;PMS7003;54688;52.376;16.744;2022-09-09T07:34:08;20;18;
67892;PMS7003;54688;52.376;16.744;2022-09-09T07:37:10;17;16;
67892;PMS7003;54688;52.376;16.744;2022-09-09T07:40:12;17;15;
67892;PMS7003;54688;52.376;16.744;2022-09-09T07:43:14;15;15;
67892;PMS7003;54688;52.376;16.744;2022-09-09T07:46:19;15;14;
67892;PMS7003;54688;52.376;16.744;2022-09-09T07:49:21;11;11;
67892;PMS7003;54688;52.376;16.744;2022-09-09T07:52:23;13;13;
67892;PMS7003;54688;52.376;16.744;2022-09-09T07:55:25;11;10;
67892;PMS7003;54688;52.376;16.744;2022-09-09T07:58:27;15;11;
67892;PMS7003;54688;52.376;16.744;2022-09-09T08:01:31;13;13;
67892;PMS7003;54688;52.376;16.744;2022-09-09T08:04:34;15;11;
67892;PMS7003;54688;52.376;16.744;2022-09-09T08:07:35;11;10;
67892;PMS7003;54688;52.376;16.744;2022-09-09T08:10:38;13;13;
67892;PMS7003;54688;52.376;16.744;2022-09-09T08:13:41;12;11;
67892;PMS7003;54688;52.376;16.744;2022-09-09T08:16:45;8;8;
67892;PMS7003;54688;52.376;16.744;2022-09-09T08:19:47;10;7;
67892;PMS7003;54688;52.376;16.744;2022-09-09T08:22:49;10;9;
67892;PMS7003;54688;52.376;16.744;2022-09-09T08:25:51;10;9;
67892;PMS7003;54688;52.376;16.744;2022-09-09T08:28:55;13;8;
67892;PMS7003;54688;52.376;16.744;2022-09-09T08:31:58;14;12;
67892;PMS7003;54688;52.376;16.744;2022-09-09T08:35:00;15;14;
67892;PMS7003;54688;52.376;16.744;2022-09-09T08:38:05;13;12;
67892;PMS7003;54688;52.376;16.744;2022-09-09T08:41:19;13;10;
67892;PMS7003;54688;52.376;16.744;2022-09-09T08:44:38;12;11;
67892;PMS7003;54688;52.376;16.744;2022-09-09T08:47:55;8;8;
67892;PMS7003;54688;52.376;16.744;2022-09-09T08:51:04;9;9;
67892;PMS7003;54688;52.376;16.744;2022-09-09T08:54:08;14;14;
67892;PMS7003;54688;52.376;16.744;2022-09-09T08:57:14;14;9;
67892;PMS7003;54688;52.376;16.744;2022-09-09T09:00:18;11;11;
67892;PMS7003;54688;52.376;16.744;2022-09-09T09:03:27;14;12;
67892;PMS7003;54688;52.376;16.744;2022-09-09T09:06:41;11;10;
67892;PMS7003;54688;52.376;16.744;2022-09-09T09:09:53;11;9;
67892;PMS7003;54688;52.376;16.744;2022-09-09T09:12:56;9;9;
67892;PMS7003;54688;52.376;16.744;2022-09-09T09:16:02;12;8;
67892;PMS7003;54688;52.376;16.744;2022-09-09T09:19:08;7;7;
67892;PMS7003;54688;52.376;16.744;2022-09-09T09:25:17;10;10;
67892;PMS7003;54688;52.376;16.744;2022-09-09T09:28:23;14;14;
67892;PMS7003;54688;52.376;16.744;2022-09-09T09:31:25;10;10;
67892;PMS7003;54688;52.376;16.744;2022-09-09T09:34:27;10;10;
67892;PMS7003;54688;52.376;16.744;2022-09-09T09:37:32;10;9;
67892;PMS7003;54688;52.376;16.744;2022-09-09T09:40:35;10;9;
67892;PMS7003;54688;52.376;16.744;2022-09-09T09:43:40;9;7;
67892;PMS7003;54688;52.376;16.744;2022-09-09T09:46:42;11;11;
67892;PMS7003;54688;52.376;16.744;2022-09-09T09:49:53;13;10;
67892;PMS7003;54688;52.376;16.744;2022-09-09T09:52:56;9;9;
67892;PMS7003;54688;52.376;16.744;2022-09-09T09:56:01;12;11;
67892;PMS7003;54688;52.376;16.744;2022-09-09T09:59:04;10;10;
67892;PMS7003;54688;52.376;16.744;2022-09-09T10:02:15;4;4;
67892;PMS7003;54688;52.376;16.744;2022-09-09T10:05:20;8;8;
67892;PMS7003;54688;52.376;16.744;2022-09-09T10:08:24;12;10;
67892;PMS7003;54688;52.376;16.744;2022-09-09T10:11:33;10;9;
67892;PMS7003;54688;52.376;16.744;2022-09-09T10:14:46;10;10;
67892;PMS7003;54688;52.376;16.744;2022-09-09T10:17:56;8;6;
67892;PMS7003;54688;52.376;16.744;2022-09-09T10:21:05;11;9;
67892;PMS7003;54688;52.376;16.744;2022-09-09T10:24:24;8;8;
67892;PMS7003;54688;52.376;16.744;2022-09-09T10:27:38;9;8;
67892;PMS7003;54688;52.376;16.744;2022-09-09T10:30:51;13;9;
67892;PMS7003;54688;52.376;16.744;2022-09-09T10:34:05;7;7;
67892;PMS7003;54688;52.376;16.744;2022-09-09T10:37:22;6;5;
67892;PMS7003;54688;52.376;16.744;2022-09-09T10:40:32;6;6;
67892;PMS7003;54688;52.376;16.744;2022-09-09T10:44:49;5;5;
67892;PMS7003;54688;52.376;16.744;2022-09-09T10:48:03;5;5;
67892;PMS7003;54688;52.376;16.744;2022-09-09T10:51:18;7;7;
67892;PMS7003;54688;52.376;16.744;2022-09-09T10:54:29;6;5;
67892;PMS7003;54688;52.376;16.744;2022-09-09T10:57:35;8;6;
67892;PMS7003;54688;52.376;16.744;2022-09-09T11:00:42;5;4;
67892;PMS7003;54688;52.376;16.744;2022-09-09T11:03:50;4;4;
67892;PMS7003;54688;52.376;16.744;2022-09-09T11:06:55;4;3;
67892;PMS7003;54688;52.376;16.744;2022-09-09T11:10:01;3;3;
67892;PMS7003;54688;52.376;16.744;2022-09-09T11:13:14;2;2;
67892;PMS7003;54688;52.376;16.744;2022-09-09T11:16:23;4;4;
67892;PMS7003;54688;52.376;16.744;2022-09-09T11:19:30;4;4;
67892;PMS7003;54688;52.376;16.744;2022-09-09T11:22:36;5;5;
67892;PMS7003;54688;52.376;16.744;2022-09-09T11:25:41;6;4;
67892;PMS7003;54688;52.376;16.744;2022-09-09T11:28:54;4;4;
67892;PMS7003;54688;52.376;16.744;2022-09-09T11:32:12;4;4;
67892;PMS7003;54688;52.376;16.744;2022-09-09T11:35:28;4;4;
67892;PMS7003;54688;52.376;16.744;2022-09-09T11:38:36;4;4;
67892;PMS7003;54688;52.376;16.744;2022-09-09T11:41:40;6;4;
67892;PMS7003;54688;52.376;16.744;2022-09-09T11:44:43;2;2;
67892;PMS7003;54688;52.376;16.744;2022-09-09T11:47:51;2;2;
67892;PMS7003;54688;52.376;16.744;2022-09-09T11:50:58;3;3;
67892;PMS7003;54688;52.376;16.744;2022-09-09T11:54:27;5;5;
67892;PMS7003;54688;52.376;16.744;2022-09-09T11:57:32;4;3;
67892;PMS7003;54688;52.376;16.744;2022-09-09T12:00:37;8;5;
67892;PMS7003;54688;52.376;16.744;2022-09-09T12:03:41;2;2;
67892;PMS7003;54688;52.376;16.744;2022-09-09T12:06:46;2;2;
67892;PMS7003;54688;52.376;16.744;2022-09-09T12:09:54;2;2;
67892;PMS7003;54688;52.376;16.744;2022-09-09T12:13:07;1;1;
67892;PMS7003;54688;52.376;16.744;2022-09-09T12:16:28;1;1;
67892;PMS7003;54688;52.376;16.744;2022-09-09T12:19:30;2;2;
67892;PMS7003;54688;52.376;16.744;2022-09-09T12:22:40;3;2;
67892;PMS7003;54688;52.376;16.744;2022-09-09T12:25:55;2;2;
67892;PMS7003;54688;52.376;16.744;2022-09-09T12:29:09;4;1;
67892;PMS7003;54688;52.376;16.744;2022-09-09T12:32:16;1;1;
67892;PMS7003;54688;52.376;16.744;2022-09-09T12:35:21;2;2;
67892;PMS7003;54688;52.376;16.744;2022-09-09T12:38:30;5;3;
67892;PMS7003;54688;52.376;16.744;2022-09-09T12:41:34;1;1;
67892;PMS7003;54688;52.376;16.744;2022-09-09T12:44:35;1;1;
67892;PMS7003;54688;52.376;16.744;2022-09-09T12:47:41;2;2;
67892;PMS7003;54688;52.376;16.744;2022-09-09T12:50:49;1;1;
67892;PMS7003;54688;52.376;16.744;2022-09-09T12:53:52;4;3;
67892;PMS7003;54688;52.376;16.744;2022-09-09T12:56:57;2;2;
67892;PMS7003;54688;52.376;16.744;2022-09-09T13:00:13;1;1;
67892;PMS7003;54688;52.376;16.744;2022-09-09T13:03:18;2;2;
67892;PMS7003;54688;52.376;16.744;2022-09-09T13:06:23;3;1;
67892;PMS7003;54688;52.376;16.744;2022-09-09T13:09:25;2;2;
67892;PMS7003;54688;52.376;16.744;2022-09-09T13:12:28;2;2;
67892;PMS7003;54688;52.376;16.744;2022-09-09T13:15:30;1;1;
67892;PMS7003;54688;52.376;16.744;2022-09-09T13:18:34;1;1;
67892;PMS7003;54688;52.376;16.744;2022-09-09T13:21:39;3;2;
67892;PMS7003;54688;52.376;16.744;2022-09-09T13:24:43;4;2;
67892;PMS7003;54688;52.376;16.744;2022-09-09T13:27:54;2;2;
67892;PMS7003;54688;52.376;16.744;2022-09-09T13:31:20;2;2;
67892;PMS7003;54688;52.376;16.744;2022-09-09T13:34:34;3;1;
67892;PMS7003;54688;52.376;16.744;2022-09-09T13:45:16;0;0;
67892;PMS7003;54688;52.376;16.744;2022-09-09T13:48:22;2;1;
67892;PMS7003;54688;52.376;16.744;2022-09-09T13:55:03;2;1;
67892;PMS7003;54688;52.376;16.744;2022-09-09T14:06:49;4;4;
67892;PMS7003;54688;52.376;16.744;2022-09-09T14:09:52;6;6;
67892;PMS7003;54688;52.376;16.744;2022-09-09T14:12:57;6;3;
67892;PMS7003;54688;52.376;16.744;2022-09-09T14:16:06;11;10;
67892;PMS7003;54688;52.376;16.744;2022-09-09T14:22:36;14;7;
67892;PMS7003;54688;52.376;16.744;2022-09-09T14:51:34;2;2;
67892;PMS7003;54688;52.376;16.744;2022-09-09T14:54:37;2;2;
67892;PMS7003;54688;52.376;16.744;2022-09-09T14:57:39;1;1;
67892;PMS7003;54688;52.376;16.744;2022-09-09T15:00:43;2;2;
67892;PMS7003;54688;52.376;16.744;2022-09-09T15:03:49;1;1;
67892;PMS7003;54688;52.376;16.744;2022-09-09T15:06:51;3;3;
67892;PMS7003;54688;52.376;16.744;2022-09-09T15:09:54;2;2;
67892;PMS7003;54688;52.376;16.744;2022-09-09T15:12:56;2;2;
67892;PMS7003;54688;52.376;16.744;2022-09-09T15:16:03;5;2;
67892;PMS7003;54688;52.376;16.744;2022-09-09T15:19:06;0;0;
67892;PMS7003;54688;52.376;16.744;2022-09-09T15:22:08;2;2;
67892;PMS7003;54688;52.376;16.744;2022-09-09T15:25:11;2;2;
67892;PMS7003;54688;52.376;16.744;2022-09-09T15:28:13;2;1;
67892;PMS7003;54688;52.376;16.744;2022-09-09T15:31:17;2;2;
67892;PMS7003;54688;52.376;16.744;2022-09-09T15:34:19;4;2;
67892;PMS7003;54688;52.376;16.744;2022-09-09T15:37:21;3;2;
67892;PMS7003;54688;52.376;16.744;2022-09-09T15:40:23;2;2;
67892;PMS7003;54688;52.376;16.744;2022-09-09T15:43:32;2;2;
67892;PMS7003;54688;52.376;16.744;2022-09-09T15:46:36;4;3;
67892;PMS7003;54688;52.376;16.744;2022-09-09T15:49:39;2;2;
67892;PMS7003;54688;52.376;16.744;2022-09-09T15:52:41;2;2;
67892;PMS7003;54688;52.376;16.744;2022-09-09T15:55:43;3;2;
67892;PMS7003;54688;52.376;16.744;2022-09-09T15:58:47;2;1;
67892;PMS7003;54688;52.376;16.744;2022-09-09T16:01:51;2;2;
67892;PMS7003;54688;52.376;16.744;2022-09-09T16:04:53;3;3;
67892;PMS7003;54688;52.376;16.744;2022-09-09T16:07:56;2;2;
67892;PMS7003;54688;52.376;16.744;2022-09-09T16:11:04;2;2;
67892;PMS7003;54688;52.376;16.744;2022-09-09T16:14:07;2;2;
67892;PMS7003;54688;52.376;16.744;2022-09-09T16:17:09;2;0;
67892;PMS7003;54688;52.376;16.744;2022-09-09T16:20:12;2;2;
67892;PMS7003;54688;52.376;16.744;2022-09-09T16:23:14;3;2;
67892;PMS7003;54688;52.376;16.744;2022-09-09T16:26:18;1;1;
67892;PMS7003;54688;52.376;16.744;2022-09-09T16:29:20;2;2;
67892;PMS7003;54688;52.376;16.744;2022-09-09T16:32:23;2;1;
67892;PMS7003;54688;52.376;16.744;2022-09-09T16:35:25;2;2;
67892;PMS7003;54688;52.376;16.744;2022-09-09T16:38:28;4;3;
67892;PMS7003;54688;52.376;16.744;2022-09-09T16:41:31;2;2;
67892;PMS7003;54688;52.376;16.744;2022-09-09T16:44:33;3;2;
67892;PMS7003;54688;52.376;16.744;2022-09-09T16:47:36;3;2;
67892;PMS7003;54688;52.376;16.744;2022-09-09T16:50:38;2;2;
67892;PMS7003;54688;52.376;16.744;2022-09-09T16:53:41;2;2;
67892;PMS7003;54688;52.376;16.744;2022-09-09T16:56:46;3;2;
67892;PMS7003;54688;52.376;16.744;2022-09-09T16:59:48;2;2;
67892;PMS7003;54688;52.376;16.744;2022-09-09T17:02:51;3;3;
67892;PMS7003;54688;52.376;16.744;2022-09-09T17:05:54;3;3;
67892;PMS7003;54688;52.376;16.744;2022-09-09T17:08:57;3;3;
67892;PMS7003;54688;52.376;16.744;2022-09-09T17:12:00;2;2;
67892;PMS7003;54688;52.376;16.744;2022-09-09T17:15:04;4;3;
67892;PMS7003;54688;52.376;16.744;2022-09-09T17:18:06;3;3;
67892;PMS7003;54688;52.376;16.744;2022-09-09T17:21:11;4;4;
67892;PMS7003;54688;52.376;16.744;2022-09-09T17:24:14;4;4;
67892;PMS7003;54688;52.376;16.744;2022-09-09T17:27:16;4;2;
67892;PMS7003;54688;52.376;16.744;2022-09-09T17:30:18;3;3;
67892;PMS7003;54688;52.376;16.744;2022-09-09T17:33:21;3;3;
67892;PMS7003;54688;52.376;16.744;2022-09-09T17:36:25;2;2;
67892;PMS7003;54688;52.376;16.744;2022-09-09T17:39:27;3;3;
67892;PMS7003;54688;52.376;16.744;2022-09-09T17:42:30;2;2;
67892;PMS7003;54688;52.376;16.744;2022-09-09T17:45:32;6;3;
67892;PMS7003;54688;52.376;16.744;2022-09-09T17:48:35;5;4;
67892;PMS7003;54688;52.376;16.744;2022-09-09T17:51:38;7;5;
67892;PMS7003;54688;52.376;16.744;2022-09-09T17:54:40;6;4;
67892;PMS7003;54688;52.376;16.744;2022-09-09T17:57:43;6;4;
67892;PMS7003;54688;52.376;16.744;2022-09-09T18:00:45;6;5;
67892;PMS7003;54688;52.376;16.744;2022-09-09T18:03:49;5;5;
67892;PMS7003;54688;52.376;16.744;2022-09-09T18:06:53;3;3;
67892;PMS7003;54688;52.376;16.744;2022-09-09T18:09:55;4;4;
67892;PMS7003;54688;52.376;16.744;2022-09-09T18:12:58;6;5;
67892;PMS7003;54688;52.376;16.744;2022-09-09T18:16:05;6;5;
67892;PMS7003;54688;52.376;16.744;2022-09-09T18:19:10;7;5;
67892;PMS7003;54688;52.376;16.744;2022-09-09T18:22:12;6;5;
67892;PMS7003;54688;52.376;16.744;2022-09-09T18:25:15;4;4;
67892;PMS7003;54688;52.376;16.744;2022-09-09T18:28:18;7;6;
67892;PMS7003;54688;52.376;16.744;2022-09-09T18:31:22;8;7;
67892;PMS7003;54688;52.376;16.744;2022-09-09T18:34:25;9;8;
67892;PMS7003;54688;52.376;16.744;2022-09-09T18:37:28;8;7;
67892;PMS7003;54688;52.376;16.744;2022-09-09T18:43:29;7;7;
67892;PMS7003;54688;52.376;16.744;2022-09-09T18:46:33;8;7;
67892;PMS7003;54688;52.376;16.744;2022-09-09T18:49:36;10;7;
67892;PMS7003;54688;52.376;16.744;2022-09-09T18:52:39;6;6;
67892;PMS7003;54688;52.376;16.744;2022-09-09T18:55:41;9;8;
67892;PMS7003;54688;52.376;16.744;2022-09-09T18:58:44;11;9;
67892;PMS7003;54688;52.376;16.744;2022-09-09T19:01:47;10;10;
67892;PMS7003;54688;52.376;16.744;2022-09-09T19:04:51;15;8;
67892;PMS7003;54688;52.376;16.744;2022-09-09T19:07:54;13;9;
67892;PMS7003;54688;52.376;16.744;2022-09-09T19:10:59;14;12;
67892;PMS7003;54688;52.376;16.744;2022-09-09T19:14:04;12;12;
67892;PMS7003;54688;52.376;16.744;2022-09-09T19:17:06;11;10;
67892;PMS7003;54688;52.376;16.744;2022-09-09T19:20:08;12;9;
67892;PMS7003;54688;52.376;16.744;2022-09-09T19:23:11;11;9;
67892;PMS7003;54688;52.376;16.744;2022-09-09T19:26:14;11;8;
67892;PMS7003;54688;52.376;16.744;2022-09-09T19:29:17;10;10;
67892;PMS7003;54688;52.376;16.744;2022-09-09T19:32:20;10;10;
67892;PMS7003;54688;52.376;16.744;2022-09-09T19:35:22;8;8;
67892;PMS7003;54688;52.376;16.744;2022-09-09T19:38:25;12;11;
67892;PMS7003;54688;52.376;16.744;2022-09-09T19:41:28;12;11;
67892;PMS7003;54688;52.376;16.744;2022-09-09T19:44:31;10;10;
67892;PMS7003;54688;52.376;16.744;2022-09-09T19:47:33;10;10;
67892;PMS7003;54688;52.376;16.744;2022-09-09T19:50:35;10;8;
67892;PMS7003;54688;52.376;16.744;2022-09-09T19:53:39;11;11;
67892;PMS7003;54688;52.376;16.744;2022-09-09T19:56:43;10;10;
67892;PMS7003;54688;52.376;16.744;2022-09-09T19:59:45;12;10;
67892;PMS7003;54688;52.376;16.744;2022-09-09T20:02:48;11;11;
67892;PMS7003;54688;52.376;16.744;2022-09-09T20:05:51;9;9;
67892;PMS7003;54688;52.376;16.744;2022-09-09T20:08:54;11;10;
67892;PMS7003;54688;52.376;16.744;2022-09-09T20:11:57;10;9;
67892;PMS7003;54688;52.376;16.744;2022-09-09T20:14:59;12;11;
67892;PMS7003;54688;52.376;16.744;2022-09-09T20:18:03;13;12;
67892;PMS7003;54688;52.376;16.744;2022-09-09T20:21:09;11;11;
67892;PMS7003;54688;52.376;16.744;2022-09-09T20:24:12;11;10;
67892;PMS7003;54688;52.376;16.744;2022-09-09T20:27:14;11;9;
67892;PMS7003;54688;52.376;16.744;2022-09-09T20:30:17;9;9;
67892;PMS7003;54688;52.376;16.744;2022-09-09T20:33:19;11;10;
67892;PMS7003;54688;52.376;16.744;2022-09-09T20:36:23;13;11;
67892;PMS7003;54688;52.376;16.744;2022-09-09T20:39:25;11;10;
67892;PMS7003;54688;52.376;16.744;2022-09-09T20:42:28;11;9;
67892;PMS7003;54688;52.376;16.744;2022-09-09T20:45:34;13;13;
67892;PMS7003;54688;52.376;16.744;2022-09-09T20:48:36;14;12;
67892;PMS7003;54688;52.376;16.744;2022-09-09T20:51:38;11;10;
67892;PMS7003;54688;52.376;16.744;2022-09-09T20:54:41;11;11;
67892;PMS7003;54688;52.376;16.744;2022-09-09T20:57:43;10;10;
67892;PMS7003;54688;52.376;16.744;2022-09-09T21:00:46;12;12;
67892;PMS7003;54688;52.376;16.744;2022-09-09T21:03:49;14;12;
67892;PMS7003;54688;52.376;16.744;2022-09-09T21:06:52;11;11;
67892;PMS7003;54688;52.376;16.744;2022-09-09T21:09:55;11;11;
67892;PMS7003;54688;52.376;16.744;2022-09-09T21:12:58;12;11;
67892;PMS7003;54688;52.376;16.744;2022-09-09T21:15:59;12;10;
67892;PMS7003;54688;52.376;16.744;2022-09-09T21:19:02;11;7;
67892;PMS7003;54688;52.376;16.744;2022-09-09T21:22:04;9;9;
67892;PMS7003;54688;52.376;16.744;2022-09-09T21:25:07;8;7;
67892;PMS7003;54688;52.376;16.744;2022-09-09T21:28:10;8;8;
67892;PMS7003;54688;52.376;16.744;2022-09-09T21:31:13;14;12;
67892;PMS7003;54688;52.376;16.744;2022-09-09T21:34:15;7;6;
67892;PMS7003;54688;52.376;16.744;2022-09-09T21:37:16;7;7;
67892;PMS7003;54688;52.376;16.744;2022-09-09T21:40:19;7;6;
67892;PMS7003;54688;52.376;16.744;2022-09-09T21:43:21;8;8;